createdAt,value
2019-03-20T00:03:41.987Z,103203.36
2019-03-20T00:08:44.008Z,103207.91
2019-03-20T00:13:55.216Z,103206.50
2019-03-20T00:18:57.233Z,103208.27
2019-03-20T00:23:59.499Z,103199.08
2019-03-20T00:29:01.525Z,103197.39
2019-03-20T00:34:03.734Z,103187.64
2019-03-20T00:39:07.452Z,103184.65
2019-03-20T00:44:12.289Z,103190.33
2019-03-20T00:49:14.295Z,103190.58
2019-03-20T00:54:21.504Z,103195.78
2019-03-20T00:59:25.787Z,103198.30
2019-03-20T01:04:27.923Z,103195.17
2019-03-20T01:09:31.620Z,103199.51
2019-03-20T01:14:33.834Z,103174.16
2019-03-20T01:19:37.233Z,103181.23
2019-03-20T01:24:41.952Z,103185.20
2019-03-20T01:29:43.979Z,103179.47
2019-03-20T01:34:46.235Z,103170.38
2019-03-20T01:39:48.308Z,103184.63
2019-03-20T01:44:50.900Z,103172.82
2019-03-20T01:49:52.999Z,103180.27
2019-03-20T01:54:55.214Z,103178.94
2019-03-20T02:00:01.374Z,103174.19
2019-03-20T02:05:09.841Z,103176.86
2019-03-20T02:10:12.267Z,103178.27
2019-03-20T02:15:14.809Z,103175.99
2019-03-20T02:20:16.841Z,103177.25
2019-03-20T02:25:18.861Z,103187.91
2019-03-20T02:30:23.687Z,103176.17
2019-03-20T02:35:28.183Z,103168.07
2019-03-20T02:40:30.406Z,103186.41
2019-03-20T02:45:32.774Z,103182.52
2019-03-20T02:50:36.854Z,103190.08
2019-03-20T02:55:41.942Z,103189.90
2019-03-20T03:00:48.638Z,103184.64
2019-03-20T03:06:06.081Z,103183.67
2019-03-20T03:11:00.014Z,103178.05
2019-03-20T03:16:02.100Z,103187.88
2019-03-20T03:21:04.180Z,103188.53
2019-03-20T03:26:06.352Z,103175.31
2019-03-20T03:31:16.314Z,103183.02
2019-03-20T03:36:21.901Z,103178.84
2019-03-20T03:41:24.397Z,103178.14
2019-03-20T03:46:26.563Z,103171.02
2019-03-20T03:51:29.581Z,103171.56
2019-03-20T03:56:32.696Z,103168.72
2019-03-20T04:01:34.781Z,103159.93
2019-03-20T04:06:36.979Z,103162.20
2019-03-20T04:11:38.989Z,103173.15
2019-03-20T04:16:44.297Z,103177.11
2019-03-20T04:21:47.430Z,103181.80
2019-03-20T04:26:51.224Z,103189.69
2019-03-20T04:31:53.236Z,103186.05
2019-03-20T04:36:58.128Z,103198.83
2019-03-20T04:42:00.781Z,103206.47
2019-03-20T04:47:02.963Z,103203.23
2019-03-20T04:52:05.003Z,103208.88
2019-03-20T04:57:08.419Z,103211.36
2019-03-20T05:02:10.518Z,103206.03
2019-03-20T05:07:13.312Z,103208.05
2019-03-20T05:12:17.252Z,103217.05
2019-03-20T05:17:19.427Z,103227.80
2019-03-20T05:22:22.641Z,103231.53
2019-03-20T05:27:24.671Z,103238.45
2019-03-20T05:32:28.115Z,103238.02
2019-03-20T05:37:30.093Z,103238.98
2019-03-20T05:42:32.454Z,103240.66
2019-03-20T05:47:35.694Z,103246.28
2019-03-20T05:52:38.896Z,103250.97
2019-03-20T05:57:42.763Z,103254.31
2019-03-20T06:02:49.258Z,103257.53
2019-03-20T06:07:51.299Z,103259.37
2019-03-20T06:12:53.527Z,103264.12
2019-03-20T06:17:55.578Z,103258.14
2019-03-20T06:22:57.638Z,103255.51
2019-03-20T06:27:59.746Z,103268.08
2019-03-20T06:33:02.040Z,103264.05
2019-03-20T06:38:07.227Z,103274.53
2019-03-20T06:43:09.289Z,103279.55
2019-03-20T06:48:14.330Z,103285.02
2019-03-20T06:53:19.471Z,103295.40
2019-03-20T06:58:26.910Z,103296.91
2019-03-20T07:03:42.408Z,103301.86
2019-03-20T07:08:54.174Z,103313.47
2019-03-20T07:13:57.728Z,103308.95
2019-03-20T07:19:01.877Z,103306.38
2019-03-20T07:24:04.045Z,103308.37
2019-03-20T07:29:06.060Z,103312.97
2019-03-20T07:34:10.323Z,103320.03
2019-03-20T07:39:12.333Z,103321.36
2019-03-20T07:44:14.765Z,103319.66
2019-03-20T07:49:17.129Z,103315.64
2019-03-20T07:54:19.135Z,103321.11
2019-03-20T07:59:22.408Z,103322.24
2019-03-20T08:04:27.539Z,103328.72
2019-03-20T08:09:29.679Z,103323.48
2019-03-20T08:14:34.309Z,103322.86
2019-03-20T08:19:39.117Z,103324.56
2019-03-20T08:24:41.302Z,103330.30
2019-03-20T08:29:43.655Z,103341.66
2019-03-20T08:34:45.851Z,103343.48
2019-03-20T08:39:50.316Z,103357.70
2019-03-20T08:44:52.789Z,103347.11
2019-03-20T08:49:57.456Z,103349.98
2019-03-20T08:54:59.785Z,103358.70
2019-03-20T09:00:01.845Z,103359.94
2019-03-20T09:05:05.781Z,103374.11
2019-03-20T09:10:13.535Z,103376.73
2019-03-20T09:15:15.782Z,103379.17
2019-03-20T09:20:17.860Z,103377.78
2019-03-20T09:25:20.475Z,103394.66
2019-03-20T09:30:22.515Z,103394.66
2019-03-20T09:35:35.218Z,103394.12
2019-03-20T09:40:39.009Z,103394.31
2019-03-20T09:45:47.967Z,103409.99
2019-03-20T09:50:50.017Z,103409.99
2019-03-20T09:55:54.769Z,103411.12
2019-03-20T10:00:56.783Z,103411.12
2019-03-20T10:06:00.165Z,103424.21
2019-03-20T10:11:04.658Z,103426.14
2019-03-20T10:16:09.976Z,103430.97
2019-03-20T10:21:12.154Z,103439.89
2019-03-20T10:26:14.230Z,103440.38
2019-03-20T10:31:16.320Z,103438.02
2019-03-20T10:36:18.535Z,103438.73
2019-03-20T10:41:21.857Z,103443.57
2019-03-20T10:46:23.991Z,103439.56
2019-03-20T10:51:26.087Z,103448.52
2019-03-20T10:56:28.487Z,103450.13
2019-03-20T11:01:41.820Z,103450.01
2019-03-20T11:06:34.897Z,103448.95
2019-03-20T11:11:38.095Z,103448.95
2019-03-20T11:16:40.423Z,103464.09
2019-03-20T11:21:43.026Z,103466.88
2019-03-20T11:26:45.574Z,103460.37
2019-03-20T11:31:50.323Z,103460.37
2019-03-20T11:36:52.412Z,103471.10
2019-03-20T11:41:56.926Z,103465.39
2019-03-20T11:46:59.168Z,103471.21
2019-03-20T11:52:01.235Z,103475.00
2019-03-20T11:57:03.946Z,103476.66
2019-03-20T12:02:08.963Z,103485.44
2019-03-20T12:07:11.308Z,103484.59
2019-03-20T12:12:13.272Z,103483.00
2019-03-20T12:17:17.150Z,103482.93
2019-03-20T12:22:19.258Z,103482.14
2019-03-20T12:27:21.316Z,103482.14
2019-03-20T12:32:23.433Z,103469.80
2019-03-20T12:37:25.469Z,103458.02
2019-03-20T12:42:27.590Z,103457.71
2019-03-20T12:47:29.638Z,103460.72
2019-03-20T12:52:32.592Z,103457.53
2019-03-20T12:57:34.619Z,103450.08
2019-03-20T13:02:36.654Z,103461.63
2019-03-20T13:07:41.258Z,103462.85
2019-03-20T13:12:43.562Z,103460.28
2019-03-20T13:17:45.776Z,103456.95
2019-03-20T13:22:54.285Z,103451.00
2019-03-20T13:27:57.694Z,103449.47
2019-03-20T13:33:02.925Z,103450.20
2019-03-20T13:38:04.974Z,103453.08
2019-03-20T13:43:07.127Z,103452.87
2019-03-20T13:48:09.148Z,103453.66
2019-03-20T13:53:11.183Z,103449.77
2019-03-20T13:58:13.864Z,103443.86
2019-03-20T14:03:15.925Z,103440.94
2019-03-20T14:08:19.490Z,103436.30
2019-03-20T14:13:21.516Z,103437.09
2019-03-20T14:18:23.529Z,103431.63
2019-03-20T14:23:25.990Z,103433.75
2019-03-20T14:28:28.043Z,103435.17
2019-03-20T14:33:30.071Z,103433.86
2019-03-20T14:38:32.122Z,103443.41
2019-03-20T14:43:36.190Z,103438.09
2019-03-20T14:48:38.194Z,103439.59
2019-03-20T14:53:43.594Z,103441.05
2019-03-20T14:58:45.622Z,103440.11
2019-03-20T15:03:48.748Z,103445.40
2019-03-20T15:08:51.069Z,103438.84
2019-03-20T15:13:53.327Z,103442.91
2019-03-20T15:18:55.361Z,103453.11
2019-03-20T15:23:59.918Z,103438.44
2019-03-20T15:29:02.012Z,103439.58
2019-03-20T15:34:04.020Z,103440.52
2019-03-20T15:39:09.024Z,103425.72
2019-03-20T15:44:13.977Z,103439.08
2019-03-20T15:49:16.080Z,103439.33
2019-03-20T15:54:18.125Z,103435.32
2019-03-20T15:59:20.170Z,103433.92
2019-03-20T16:04:22.232Z,103432.90
2019-03-20T16:09:24.416Z,103431.17
2019-03-20T16:14:26.585Z,103433.47
2019-03-20T16:19:28.598Z,103432.13
2019-03-20T16:24:31.715Z,103467.28
2019-03-20T16:29:33.817Z,103446.13
2019-03-20T16:34:35.983Z,103451.92
2019-03-20T16:39:40.468Z,103451.92
2019-03-20T16:44:42.791Z,103457.23
2019-03-20T16:49:44.885Z,103474.63
2019-03-20T16:54:49.442Z,103474.63
2019-03-20T16:59:51.511Z,103469.65
2019-03-20T17:04:53.844Z,103462.60
2019-03-20T17:09:55.854Z,103468.18
2019-03-20T17:14:58.187Z,103474.09
2019-03-20T17:20:00.424Z,103477.95
2019-03-20T17:25:06.151Z,103475.74
2019-03-20T17:30:16.810Z,103484.00
2019-03-20T17:35:20.014Z,103474.00
2019-03-20T17:40:22.055Z,103474.00
2019-03-20T17:45:24.848Z,103478.81
2019-03-20T17:50:30.494Z,103485.46
2019-03-20T17:55:32.521Z,103495.86
2019-03-20T18:00:38.378Z,103491.16
2019-03-20T18:05:41.647Z,103493.37
2019-03-20T18:10:43.666Z,103489.50
2019-03-20T18:15:47.043Z,103510.89
2019-03-20T18:20:50.159Z,103510.89
2019-03-20T18:25:52.252Z,103522.05
2019-03-20T18:30:54.328Z,103522.05
2019-03-20T18:35:57.831Z,103533.24
2019-03-20T18:41:06.699Z,103532.39
2019-03-20T18:46:08.954Z,103536.28
2019-03-20T18:51:11.007Z,103539.02
2019-03-20T18:56:13.289Z,103542.41
2019-03-20T19:01:18.780Z,103542.81
2019-03-20T19:06:24.921Z,103553.36
2019-03-20T19:11:27.171Z,103558.95
2019-03-20T19:16:32.872Z,103558.98
2019-03-20T19:21:34.915Z,103561.47
2019-03-20T19:26:37.140Z,103554.89
2019-03-20T19:31:39.138Z,103559.48
2019-03-20T19:36:41.460Z,103556.62
2019-03-20T19:41:45.103Z,103564.17
2019-03-20T19:46:47.162Z,103564.17
2019-03-20T19:51:51.815Z,103559.50
2019-03-20T19:56:54.037Z,103560.66
2019-03-20T20:01:59.085Z,103555.18
2019-03-20T20:07:01.547Z,103550.02
2019-03-20T20:12:06.611Z,103552.63
2019-03-20T20:17:10.766Z,103552.63
2019-03-20T20:22:12.846Z,103556.80
2019-03-20T20:27:15.029Z,103566.63
2019-03-20T20:32:18.914Z,103563.67
2019-03-20T20:37:21.119Z,103559.45
2019-03-20T20:42:23.189Z,103571.05
2019-03-20T20:47:25.434Z,103570.47
2019-03-20T20:52:30.404Z,103569.06
2019-03-20T20:57:38.602Z,103573.14
2019-03-20T21:02:40.699Z,103563.97
2019-03-20T21:07:42.704Z,103554.94
2019-03-20T21:12:55.703Z,103553.10
2019-03-20T21:18:03.493Z,103552.05
2019-03-20T21:23:45.557Z,103547.04
2019-03-20T21:29:25.297Z,103547.89
2019-03-20T21:35:08.303Z,103545.69
2019-03-20T21:40:13.521Z,103540.67
2019-03-20T21:45:55.105Z,103546.14
2019-03-20T21:51:16.301Z,103541.22
2019-03-20T21:56:31.737Z,103539.02
2019-03-20T22:02:10.458Z,103543.52
2019-03-20T22:07:13.095Z,103536.39
2019-03-20T22:12:41.253Z,103542.83
2019-03-20T22:18:12.073Z,103548.00
2019-03-20T22:24:08.483Z,103536.23
2019-03-20T22:29:27.398Z,103536.33
2019-03-20T22:35:09.953Z,103544.77
2019-03-20T22:40:55.216Z,103545.59
2019-03-20T22:46:28.109Z,103539.20
2019-03-20T22:51:42.627Z,103550.66
2019-03-20T22:57:35.778Z,103545.73
2019-03-20T23:03:05.349Z,103554.83
2019-03-20T23:08:17.412Z,103551.72
2019-03-20T23:13:22.432Z,103561.94
2019-03-20T23:18:25.021Z,103563.98
2019-03-20T23:23:28.392Z,103561.87
2019-03-20T23:28:31.243Z,103568.22
2019-03-20T23:33:34.063Z,103562.42
2019-03-20T23:38:36.623Z,103556.33
2019-03-20T23:43:52.139Z,103551.78
2019-03-20T23:48:55.352Z,103554.59
2019-03-20T23:54:01.236Z,103553.81
2019-03-20T23:59:04.220Z,103558.44
